Etusivu
METAR-TAF:

METAR-TAF

Lentoasemat :

Santiago de Cuba, Kuuba

Leveyspiiri: 19-58N, Pituuspiiri: 075-51W, korkeus merenpinnasta: 69 m

Tämänhetkinen sää

Tämä raportti tehtiin 1 tunti ja 10 minuuttia sitten, kello 10.50 UTC
Tuuli 4 kn pohjoisesta/koillisesta
Lämpötila 21°C
Kosteus 88%
Ilmanpaine 1015 hPa
Näkyvyys: 9000 m
Muutamia pilviä 2000 ft:n korkeudessa

METAR: MUCU 161050Z 03004KT 9000 FEW020 21/19 Q1015

Aika: 07:00 (12:00 UTC)

Sääennuste

Tämä raportti tehtiin 1 tunti ja 0 minuuttia sitten, kello 11.00 UTC
Ennuste voimassa 16. päivästä klo 12 UTC - 17. päivään klo 12 UTC
Tuuli 3 kn eri suunnista
Näkyvyys: 9000 m
Hajanaisia pilviä 2000 ft:n korkeudessa
Tulossa
16. päivästä klo 15 UTC - 16. päivään klo 17 UTC
Tuuli 8 kn etelästä
Tulossa
17. päivästä klo 00 UTC - 17. päivään klo 02 UTC
Tuuli 8 kn pohjoisesta

TAF: MUCU 161100Z 1612/1712 VRB03KT 9000 SCT020 BECMG 1615/1617 18008KT BECMG 1700/1702 01008KT

Säähavainnot ja -ennusteet yli 4000 lentoasemalta (METAR- ja TAF-raportit).

Käytössä olevat sääasemat on merkitty karttaan keltaisilla ja punaisilla pisteillä.

Aseta hiiri pisteen päälle nähdäksesi sääaseman nimen.

Klikkaa sitten nähdäksesi säähavainnot ja -ennusteet.

Kartan vaihtaminen: klikkaa mustalla rastilla varustettuja vihreitä pisteitä, niin voit zoomata sisään; viivalla varustettua vihreää pistettä, niin voit zoomata ulos tai vihreitä nuolia, niin pääset viereisille kartoille.


METAR-TAF: